sensor_id;sensor_type;location;lat;lon;timestamp;P1;durP1;ratioP1;P2;durP2;ratioP2
57249;SDS011;43102;52.014;-0.680;2023-04-03T00:00:01;7.80;;;4.10;;
57249;SDS011;43102;52.014;-0.680;2023-04-03T00:01:01;7.80;;;4.10;;
57249;SDS011;43102;52.014;-0.680;2023-04-03T00:02:01;7.80;;;4.10;;
57249;SDS011;43102;52.014;-0.680;2023-04-03T00:03:01;7.80;;;4.10;;
57249;SDS011;43102;52.014;-0.680;2023-04-03T00:04:01;7.80;;;4.10;;
57249;SDS011;43102;52.014;-0.680;2023-04-03T00:05:01;7.80;;;4.10;;
57249;SDS011;43102;52.014;-0.680;2023-04-03T00:06:02;9.10;;;4.30;;
57249;SDS011;43102;52.014;-0.680;2023-04-03T00:07:00;9.10;;;4.30;;
57249;SDS011;43102;52.014;-0.680;2023-04-03T00:08:02;9.10;;;4.30;;
57249;SDS011;43102;52.014;-0.680;2023-04-03T00:09:00;9.10;;;4.30;;
57249;SDS011;43102;52.014;-0.680;2023-04-03T00:10:01;9.10;;;4.30;;
57249;SDS011;43102;52.014;-0.680;2023-04-03T00:11:01;9.10;;;4.30;;
57249;SDS011;43102;52.014;-0.680;2023-04-03T00:12:01;9.10;;;4.30;;
57249;SDS011;43102;52.014;-0.680;2023-04-03T00:13:01;9.10;;;4.30;;
57249;SDS011;43102;52.014;-0.680;2023-04-03T00:14:01;9.10;;;4.30;;
57249;SDS011;43102;52.014;-0.680;2023-04-03T00:15:00;9.10;;;4.30;;
57249;SDS011;43102;52.014;-0.680;2023-04-03T00:16:01;9.10;;;4.30;;
57249;SDS011;43102;52.014;-0.680;2023-04-03T00:17:00;9.10;;;4.30;;
57249;SDS011;43102;52.014;-0.680;2023-04-03T00:18:01;9.10;;;4.30;;
57249;SDS011;43102;52.014;-0.680;2023-04-03T00:19:00;9.10;;;4.30;;
57249;SDS011;43102;52.014;-0.680;2023-04-03T00:20:01;9.10;;;4.30;;
57249;SDS011;43102;52.014;-0.680;2023-04-03T00:21:01;9.10;;;4.30;;
57249;SDS011;43102;52.014;-0.680;2023-04-03T00:22:00;9.10;;;4.30;;
57249;SDS011;43102;52.014;-0.680;2023-04-03T00:23:01;9.10;;;4.30;;
57249;SDS011;43102;52.014;-0.680;2023-04-03T00:24:00;9.10;;;4.30;;
57249;SDS011;43102;52.014;-0.680;2023-04-03T00:25:01;9.10;;;4.30;;
57249;SDS011;43102;52.014;-0.680;2023-04-03T00:26:01;9.10;;;4.30;;
57249;SDS011;43102;52.014;-0.680;2023-04-03T00:27:00;9.10;;;4.30;;
57249;SDS011;43102;52.014;-0.680;2023-04-03T00:28:01;9.10;;;4.30;;
57249;SDS011;43102;52.014;-0.680;2023-04-03T00:29:00;9.10;;;4.30;;
57249;SDS011;43102;52.014;-0.680;2023-04-03T00:30:00;9.10;;;4.30;;
57249;SDS011;43102;52.014;-0.680;2023-04-03T00:31:01;9.10;;;4.30;;
57249;SDS011;43102;52.014;-0.680;2023-04-03T00:32:00;9.10;;;4.30;;
57249;SDS011;43102;52.014;-0.680;2023-04-03T00:33:01;9.10;;;4.30;;
57249;SDS011;43102;52.014;-0.680;2023-04-03T00:34:01;9.10;;;4.30;;
57249;SDS011;43102;52.014;-0.680;2023-04-03T00:35:00;9.10;;;4.30;;
57249;SDS011;43102;52.014;-0.680;2023-04-03T00:36:06;8.60;;;4.20;;
57249;SDS011;43102;52.014;-0.680;2023-04-03T00:37:01;8.60;;;4.20;;
57249;SDS011;43102;52.014;-0.680;2023-04-03T00:38:01;8.60;;;4.20;;
57249;SDS011;43102;52.014;-0.680;2023-04-03T00:39:00;8.60;;;4.20;;
57249;SDS011;43102;52.014;-0.680;2023-04-03T00:40:01;8.60;;;4.20;;
57249;SDS011;43102;52.014;-0.680;2023-04-03T00:41:01;8.60;;;4.20;;
57249;SDS011;43102;52.014;-0.680;2023-04-03T00:42:00;8.60;;;4.20;;
57249;SDS011;43102;52.014;-0.680;2023-04-03T00:43:01;8.60;;;4.20;;
57249;SDS011;43102;52.014;-0.680;2023-04-03T00:44:16;8.60;;;4.20;;
57249;SDS011;43102;52.014;-0.680;2023-04-03T00:46:01;8.60;;;4.20;;
57249;SDS011;43102;52.014;-0.680;2023-04-03T00:47:02;8.60;;;4.20;;
57249;SDS011;43102;52.014;-0.680;2023-04-03T00:48:04;8.60;;;4.20;;
57249;SDS011;43102;52.014;-0.680;2023-04-03T00:49:00;8.60;;;4.20;;
57249;SDS011;43102;52.014;-0.680;2023-04-03T00:50:02;8.60;;;4.20;;
57249;SDS011;43102;52.014;-0.680;2023-04-03T00:51:02;8.60;;;4.20;;
57249;SDS011;43102;52.014;-0.680;2023-04-03T00:52:01;8.60;;;4.20;;
57249;SDS011;43102;52.014;-0.680;2023-04-03T00:53:02;8.60;;;4.20;;
57249;SDS011;43102;52.014;-0.680;2023-04-03T00:54:03;8.60;;;4.20;;
57249;SDS011;43102;52.014;-0.680;2023-04-03T00:55:06;8.60;;;4.20;;
57249;SDS011;43102;52.014;-0.680;2023-04-03T00:56:01;8.60;;;4.20;;
57249;SDS011;43102;52.014;-0.680;2023-04-03T00:57:01;8.60;;;4.20;;
57249;SDS011;43102;52.014;-0.680;2023-04-03T00:58:01;8.60;;;4.20;;
57249;SDS011;43102;52.014;-0.680;2023-04-03T00:59:08;8.60;;;4.20;;
57249;SDS011;43102;52.014;-0.680;2023-04-03T01:00:05;8.60;;;4.20;;
57249;SDS011;43102;52.014;-0.680;2023-04-03T01:01:05;8.60;;;4.20;;
57249;SDS011;43102;52.014;-0.680;2023-04-03T01:02:01;8.60;;;4.20;;
57249;SDS011;43102;52.014;-0.680;2023-04-03T01:03:01;8.60;;;4.20;;
57249;SDS011;43102;52.014;-0.680;2023-04-03T01:04:03;8.60;;;4.20;;
57249;SDS011;43102;52.014;-0.680;2023-04-03T01:05:00;8.60;;;4.20;;
57249;SDS011;43102;52.014;-0.680;2023-04-03T01:06:00;8.20;;;4.50;;
57249;SDS011;43102;52.014;-0.680;2023-04-03T01:07:03;8.20;;;4.50;;
57249;SDS011;43102;52.014;-0.680;2023-04-03T01:08:01;8.20;;;4.50;;
57249;SDS011;43102;52.014;-0.680;2023-04-03T01:09:01;8.20;;;4.50;;
57249;SDS011;43102;52.014;-0.680;2023-04-03T01:10:04;8.20;;;4.50;;
57249;SDS011;43102;52.014;-0.680;2023-04-03T01:11:01;8.20;;;4.50;;
57249;SDS011;43102;52.014;-0.680;2023-04-03T01:12:13;8.20;;;4.50;;
57249;SDS011;43102;52.014;-0.680;2023-04-03T01:13:01;8.20;;;4.50;;
57249;SDS011;43102;52.014;-0.680;2023-04-03T01:14:01;8.20;;;4.50;;
57249;SDS011;43102;52.014;-0.680;2023-04-03T01:15:20;8.20;;;4.50;;
57249;SDS011;43102;52.014;-0.680;2023-04-03T01:16:04;8.20;;;4.50;;
57249;SDS011;43102;52.014;-0.680;2023-04-03T01:17:00;8.20;;;4.50;;
57249;SDS011;43102;52.014;-0.680;2023-04-03T01:18:01;8.20;;;4.50;;
57249;SDS011;43102;52.014;-0.680;2023-04-03T01:19:01;8.20;;;4.50;;
57249;SDS011;43102;52.014;-0.680;2023-04-03T01:22:18;8.20;;;4.50;;
57249;SDS011;43102;52.014;-0.680;2023-04-03T01:24:09;8.20;;;4.50;;
57249;SDS011;43102;52.014;-0.680;2023-04-03T01:25:01;8.20;;;4.50;;
57249;SDS011;43102;52.014;-0.680;2023-04-03T01:26:00;8.20;;;4.50;;
57249;SDS011;43102;52.014;-0.680;2023-04-03T01:27:03;8.20;;;4.50;;
57249;SDS011;43102;52.014;-0.680;2023-04-03T01:28:00;8.20;;;4.50;;
57249;SDS011;43102;52.014;-0.680;2023-04-03T01:29:01;8.20;;;4.50;;
57249;SDS011;43102;52.014;-0.680;2023-04-03T01:30:01;8.20;;;4.50;;
57249;SDS011;43102;52.014;-0.680;2023-04-03T01:32:02;8.20;;;4.50;;
57249;SDS011;43102;52.014;-0.680;2023-04-03T01:33:01;8.20;;;4.50;;
57249;SDS011;43102;52.014;-0.680;2023-04-03T01:34:01;8.20;;;4.50;;
57249;SDS011;43102;52.014;-0.680;2023-04-03T01:35:00;8.20;;;4.50;;
57249;SDS011;43102;52.014;-0.680;2023-04-03T01:36:01;9.60;;;4.80;;
57249;SDS011;43102;52.014;-0.680;2023-04-03T01:37:01;9.60;;;4.80;;
57249;SDS011;43102;52.014;-0.680;2023-04-03T01:38:00;9.60;;;4.80;;
57249;SDS011;43102;52.014;-0.680;2023-04-03T01:39:01;9.60;;;4.80;;
57249;SDS011;43102;52.014;-0.680;2023-04-03T01:40:00;9.60;;;4.80;;
57249;SDS011;43102;52.014;-0.680;2023-04-03T01:41:01;9.60;;;4.80;;
57249;SDS011;43102;52.014;-0.680;2023-04-03T01:42:01;9.60;;;4.80;;
57249;SDS011;43102;52.014;-0.680;2023-04-03T01:43:01;9.60;;;4.80;;
57249;SDS011;43102;52.014;-0.680;2023-04-03T01:44:01;9.60;;;4.80;;
57249;SDS011;43102;52.014;-0.680;2023-04-03T01:45:00;9.60;;;4.80;;
57249;SDS011;43102;52.014;-0.680;2023-04-03T01:46:01;9.60;;;4.80;;
57249;SDS011;43102;52.014;-0.680;2023-04-03T01:47:00;9.60;;;4.80;;
57249;SDS011;43102;52.014;-0.680;2023-04-03T01:48:01;9.60;;;4.80;;
57249;SDS011;43102;52.014;-0.680;2023-04-03T01:49:01;9.60;;;4.80;;
57249;SDS011;43102;52.014;-0.680;2023-04-03T01:50:01;9.60;;;4.80;;
57249;SDS011;43102;52.014;-0.680;2023-04-03T01:51:01;9.60;;;4.80;;
57249;SDS011;43102;52.014;-0.680;2023-04-03T01:52:00;9.60;;;4.80;;
57249;SDS011;43102;52.014;-0.680;2023-04-03T01:53:00;9.60;;;4.80;;
57249;SDS011;43102;52.014;-0.680;2023-04-03T01:54:00;9.60;;;4.80;;
57249;SDS011;43102;52.014;-0.680;2023-04-03T01:55:01;9.60;;;4.80;;
57249;SDS011;43102;52.014;-0.680;2023-04-03T01:56:01;9.60;;;4.80;;
57249;SDS011;43102;52.014;-0.680;2023-04-03T01:57:01;9.60;;;4.80;;
57249;SDS011;43102;52.014;-0.680;2023-04-03T01:58:01;9.60;;;4.80;;
57249;SDS011;43102;52.014;-0.680;2023-04-03T01:59:01;9.60;;;4.80;;
57249;SDS011;43102;52.014;-0.680;2023-04-03T02:00:01;9.60;;;4.80;;
57249;SDS011;43102;52.014;-0.680;2023-04-03T02:01:01;9.60;;;4.80;;
57249;SDS011;43102;52.014;-0.680;2023-04-03T02:02:01;9.60;;;4.80;;
57249;SDS011;43102;52.014;-0.680;2023-04-03T02:03:01;9.60;;;4.80;;
57249;SDS011;43102;52.014;-0.680;2023-04-03T02:04:01;9.60;;;4.80;;
57249;SDS011;43102;52.014;-0.680;2023-04-03T02:05:01;9.60;;;4.80;;
57249;SDS011;43102;52.014;-0.680;2023-04-03T02:06:01;9.40;;;4.90;;
57249;SDS011;43102;52.014;-0.680;2023-04-03T02:07:00;9.40;;;4.90;;
57249;SDS011;43102;52.014;-0.680;2023-04-03T02:08:01;9.40;;;4.90;;
57249;SDS011;43102;52.014;-0.680;2023-04-03T02:09:00;9.40;;;4.90;;
57249;SDS011;43102;52.014;-0.680;2023-04-03T02:10:01;9.40;;;4.90;;
57249;SDS011;43102;52.014;-0.680;2023-04-03T02:11:00;9.40;;;4.90;;
57249;SDS011;43102;52.014;-0.680;2023-04-03T02:12:00;9.40;;;4.90;;
57249;SDS011;43102;52.014;-0.680;2023-04-03T02:13:01;9.40;;;4.90;;
57249;SDS011;43102;52.014;-0.680;2023-04-03T02:14:00;9.40;;;4.90;;
57249;SDS011;43102;52.014;-0.680;2023-04-03T02:15:00;9.40;;;4.90;;
57249;SDS011;43102;52.014;-0.680;2023-04-03T02:16:07;9.40;;;4.90;;
57249;SDS011;43102;52.014;-0.680;2023-04-03T02:17:05;9.40;;;4.90;;
57249;SDS011;43102;52.014;-0.680;2023-04-03T02:18:00;9.40;;;4.90;;
57249;SDS011;43102;52.014;-0.680;2023-04-03T02:19:01;9.40;;;4.90;;
57249;SDS011;43102;52.014;-0.680;2023-04-03T02:20:01;9.40;;;4.90;;
57249;SDS011;43102;52.014;-0.680;2023-04-03T02:21:00;9.40;;;4.90;;
57249;SDS011;43102;52.014;-0.680;2023-04-03T02:22:02;9.40;;;4.90;;
57249;SDS011;43102;52.014;-0.680;2023-04-03T02:23:01;9.40;;;4.90;;
57249;SDS011;43102;52.014;-0.680;2023-04-03T02:24:01;9.40;;;4.90;;
57249;SDS011;43102;52.014;-0.680;2023-04-03T02:25:01;9.40;;;4.90;;
57249;SDS011;43102;52.014;-0.680;2023-04-03T02:26:04;9.40;;;4.90;;
57249;SDS011;43102;52.014;-0.680;2023-04-03T02:27:00;9.40;;;4.90;;
57249;SDS011;43102;52.014;-0.680;2023-04-03T02:28:00;9.40;;;4.90;;
57249;SDS011;43102;52.014;-0.680;2023-04-03T02:29:00;9.40;;;4.90;;
57249;SDS011;43102;52.014;-0.680;2023-04-03T02:30:01;9.40;;;4.90;;
57249;SDS011;43102;52.014;-0.680;2023-04-03T02:31:01;9.40;;;4.90;;
57249;SDS011;43102;52.014;-0.680;2023-04-03T02:32:00;9.40;;;4.90;;
57249;SDS011;43102;52.014;-0.680;2023-04-03T02:33:01;9.40;;;4.90;;
57249;SDS011;43102;52.014;-0.680;2023-04-03T02:34:01;9.40;;;4.90;;
57249;SDS011;43102;52.014;-0.680;2023-04-03T02:35:01;9.40;;;4.90;;
57249;SDS011;43102;52.014;-0.680;2023-04-03T02:36:01;11.70;;;5.50;;
57249;SDS011;43102;52.014;-0.680;2023-04-03T02:37:01;11.70;;;5.50;;
57249;SDS011;43102;52.014;-0.680;2023-04-03T02:38:00;11.70;;;5.50;;
57249;SDS011;43102;52.014;-0.680;2023-04-03T02:39:00;11.70;;;5.50;;
57249;SDS011;43102;52.014;-0.680;2023-04-03T02:40:01;11.70;;;5.50;;
57249;SDS011;43102;52.014;-0.680;2023-04-03T02:41:04;11.70;;;5.50;;
57249;SDS011;43102;52.014;-0.680;2023-04-03T02:42:01;11.70;;;5.50;;
57249;SDS011;43102;52.014;-0.680;2023-04-03T02:43:00;11.70;;;5.50;;
57249;SDS011;43102;52.014;-0.680;2023-04-03T02:44:02;11.70;;;5.50;;
57249;SDS011;43102;52.014;-0.680;2023-04-03T02:45:01;11.70;;;5.50;;
57249;SDS011;43102;52.014;-0.680;2023-04-03T02:46:00;11.70;;;5.50;;
57249;SDS011;43102;52.014;-0.680;2023-04-03T02:47:00;11.70;;;5.50;;
57249;SDS011;43102;52.014;-0.680;2023-04-03T02:48:01;11.70;;;5.50;;
57249;SDS011;43102;52.014;-0.680;2023-04-03T02:49:01;11.70;;;5.50;;
57249;SDS011;43102;52.014;-0.680;2023-04-03T02:50:01;11.70;;;5.50;;
57249;SDS011;43102;52.014;-0.680;2023-04-03T02:51:01;11.70;;;5.50;;
57249;SDS011;43102;52.014;-0.680;2023-04-03T02:52:00;11.70;;;5.50;;
57249;SDS011;43102;52.014;-0.680;2023-04-03T02:53:01;11.70;;;5.50;;
57249;SDS011;43102;52.014;-0.680;2023-04-03T02:54:01;11.70;;;5.50;;
57249;SDS011;43102;52.014;-0.680;2023-04-03T02:55:01;11.70;;;5.50;;
57249;SDS011;43102;52.014;-0.680;2023-04-03T02:56:00;11.70;;;5.50;;
57249;SDS011;43102;52.014;-0.680;2023-04-03T02:57:01;11.70;;;5.50;;
57249;SDS011;43102;52.014;-0.680;2023-04-03T02:58:01;11.70;;;5.50;;
57249;SDS011;43102;52.014;-0.680;2023-04-03T02:59:00;11.70;;;5.50;;
57249;SDS011;43102;52.014;-0.680;2023-04-03T03:00:01;11.70;;;5.50;;
57249;SDS011;43102;52.014;-0.680;2023-04-03T03:01:01;11.70;;;5.50;;
57249;SDS011;43102;52.014;-0.680;2023-04-03T03:02:01;11.70;;;5.50;;
57249;SDS011;43102;52.014;-0.680;2023-04-03T03:03:01;11.70;;;5.50;;
57249;SDS011;43102;52.014;-0.680;2023-04-03T03:04:01;11.70;;;5.50;;
57249;SDS011;43102;52.014;-0.680;2023-04-03T03:05:01;11.70;;;5.50;;
57249;SDS011;43102;52.014;-0.680;2023-04-03T03:06:03;11.40;;;4.70;;
57249;SDS011;43102;52.014;-0.680;2023-04-03T03:07:01;11.40;;;4.70;;
57249;SDS011;43102;52.014;-0.680;2023-04-03T03:08:00;11.40;;;4.70;;
57249;SDS011;43102;52.014;-0.680;2023-04-03T03:09:00;11.40;;;4.70;;
57249;SDS011;43102;52.014;-0.680;2023-04-03T03:10:03;11.40;;;4.70;;
57249;SDS011;43102;52.014;-0.680;2023-04-03T03:11:01;11.40;;;4.70;;
57249;SDS011;43102;52.014;-0.680;2023-04-03T03:12:00;11.40;;;4.70;;
57249;SDS011;43102;52.014;-0.680;2023-04-03T03:13:01;11.40;;;4.70;;
57249;SDS011;43102;52.014;-0.680;2023-04-03T03:14:00;11.40;;;4.70;;
57249;SDS011;43102;52.014;-0.680;2023-04-03T03:15:01;11.40;;;4.70;;
57249;SDS011;43102;52.014;-0.680;2023-04-03T03:16:01;11.40;;;4.70;;
57249;SDS011;43102;52.014;-0.680;2023-04-03T03:17:00;11.40;;;4.70;;
57249;SDS011;43102;52.014;-0.680;2023-04-03T03:18:02;11.40;;;4.70;;
57249;SDS011;43102;52.014;-0.680;2023-04-03T03:19:01;11.40;;;4.70;;
57249;SDS011;43102;52.014;-0.680;2023-04-03T03:20:00;11.40;;;4.70;;
57249;SDS011;43102;52.014;-0.680;2023-04-03T03:21:02;11.40;;;4.70;;
57249;SDS011;43102;52.014;-0.680;2023-04-03T03:22:01;11.40;;;4.70;;
57249;SDS011;43102;52.014;-0.680;2023-04-03T03:23:00;11.40;;;4.70;;
57249;SDS011;43102;52.014;-0.680;2023-04-03T03:24:01;11.40;;;4.70;;
57249;SDS011;43102;52.014;-0.680;2023-04-03T03:25:02;11.40;;;4.70;;
57249;SDS011;43102;52.014;-0.680;2023-04-03T03:26:04;11.40;;;4.70;;
57249;SDS011;43102;52.014;-0.680;2023-04-03T03:27:01;11.40;;;4.70;;
57249;SDS011;43102;52.014;-0.680;2023-04-03T03:28:00;11.40;;;4.70;;
57249;SDS011;43102;52.014;-0.680;2023-04-03T03:29:00;11.40;;;4.70;;
57249;SDS011;43102;52.014;-0.680;2023-04-03T03:30:01;11.40;;;4.70;;
57249;SDS011;43102;52.014;-0.680;2023-04-03T03:31:01;11.40;;;4.70;;
57249;SDS011;43102;52.014;-0.680;2023-04-03T03:32:00;11.40;;;4.70;;
57249;SDS011;43102;52.014;-0.680;2023-04-03T03:33:01;11.40;;;4.70;;
57249;SDS011;43102;52.014;-0.680;2023-04-03T03:34:00;11.40;;;4.70;;
57249;SDS011;43102;52.014;-0.680;2023-04-03T03:35:01;11.40;;;4.70;;
57249;SDS011;43102;52.014;-0.680;2023-04-03T03:36:01;8.00;;;4.80;;
57249;SDS011;43102;52.014;-0.680;2023-04-03T03:37:01;8.00;;;4.80;;
57249;SDS011;43102;52.014;-0.680;2023-04-03T03:38:00;8.00;;;4.80;;
57249;SDS011;43102;52.014;-0.680;2023-04-03T03:39:00;8.00;;;4.80;;
57249;SDS011;43102;52.014;-0.680;2023-04-03T03:40:00;8.00;;;4.80;;
57249;SDS011;43102;52.014;-0.680;2023-04-03T03:41:01;8.00;;;4.80;;
57249;SDS011;43102;52.014;-0.680;2023-04-03T03:42:00;8.00;;;4.80;;
57249;SDS011;43102;52.014;-0.680;2023-04-03T03:43:00;8.00;;;4.80;;
57249;SDS011;43102;52.014;-0.680;2023-04-03T03:44:01;8.00;;;4.80;;
57249;SDS011;43102;52.014;-0.680;2023-04-03T03:45:00;8.00;;;4.80;;
57249;SDS011;43102;52.014;-0.680;2023-04-03T03:46:01;8.00;;;4.80;;
57249;SDS011;43102;52.014;-0.680;2023-04-03T03:47:01;8.00;;;4.80;;
57249;SDS011;43102;52.014;-0.680;2023-04-03T03:48:02;8.00;;;4.80;;
57249;SDS011;43102;52.014;-0.680;2023-04-03T03:49:01;8.00;;;4.80;;
57249;SDS011;43102;52.014;-0.680;2023-04-03T03:50:01;8.00;;;4.80;;
57249;SDS011;43102;52.014;-0.680;2023-04-03T03:51:00;8.00;;;4.80;;
57249;SDS011;43102;52.014;-0.680;2023-04-03T03:52:01;8.00;;;4.80;;
57249;SDS011;43102;52.014;-0.680;2023-04-03T03:53:01;8.00;;;4.80;;
57249;SDS011;43102;52.014;-0.680;2023-04-03T03:54:00;8.00;;;4.80;;
57249;SDS011;43102;52.014;-0.680;2023-04-03T03:55:00;8.00;;;4.80;;
57249;SDS011;43102;52.014;-0.680;2023-04-03T03:56:00;8.00;;;4.80;;
57249;SDS011;43102;52.014;-0.680;2023-04-03T03:57:00;8.00;;;4.80;;
57249;SDS011;43102;52.014;-0.680;2023-04-03T03:58:01;8.00;;;4.80;;
57249;SDS011;43102;52.014;-0.680;2023-04-03T03:59:00;8.00;;;4.80;;
57249;SDS011;43102;52.014;-0.680;2023-04-03T04:00:00;8.00;;;4.80;;
57249;SDS011;43102;52.014;-0.680;2023-04-03T04:01:03;8.00;;;4.80;;
57249;SDS011;43102;52.014;-0.680;2023-04-03T04:02:01;8.00;;;4.80;;
57249;SDS011;43102;52.014;-0.680;2023-04-03T04:03:01;8.00;;;4.80;;
57249;SDS011;43102;52.014;-0.680;2023-04-03T04:04:01;8.00;;;4.80;;
57249;SDS011;43102;52.014;-0.680;2023-04-03T04:05:00;8.00;;;4.80;;
57249;SDS011;43102;52.014;-0.680;2023-04-03T04:06:01;6.90;;;4.10;;
57249;SDS011;43102;52.014;-0.680;2023-04-03T04:07:00;6.90;;;4.10;;
57249;SDS011;43102;52.014;-0.680;2023-04-03T04:08:03;6.90;;;4.10;;
57249;SDS011;43102;52.014;-0.680;2023-04-03T04:09:01;6.90;;;4.10;;
57249;SDS011;43102;52.014;-0.680;2023-04-03T04:10:01;6.90;;;4.10;;
57249;SDS011;43102;52.014;-0.680;2023-04-03T04:11:01;6.90;;;4.10;;
57249;SDS011;43102;52.014;-0.680;2023-04-03T04:12:00;6.90;;;4.10;;
57249;SDS011;43102;52.014;-0.680;2023-04-03T04:13:00;6.90;;;4.10;;
57249;SDS011;43102;52.014;-0.680;2023-04-03T04:14:00;6.90;;;4.10;;
57249;SDS011;43102;52.014;-0.680;2023-04-03T04:15:01;6.90;;;4.10;;
57249;SDS011;43102;52.014;-0.680;2023-04-03T04:16:00;6.90;;;4.10;;
57249;SDS011;43102;52.014;-0.680;2023-04-03T04:17:02;6.90;;;4.10;;
57249;SDS011;43102;52.014;-0.680;2023-04-03T04:18:00;6.90;;;4.10;;
57249;SDS011;43102;52.014;-0.680;2023-04-03T04:19:00;6.90;;;4.10;;
57249;SDS011;43102;52.014;-0.680;2023-04-03T04:20:03;6.90;;;4.10;;
57249;SDS011;43102;52.014;-0.680;2023-04-03T04:21:00;6.90;;;4.10;;
57249;SDS011;43102;52.014;-0.680;2023-04-03T04:22:00;6.90;;;4.10;;
57249;SDS011;43102;52.014;-0.680;2023-04-03T04:23:01;6.90;;;4.10;;
57249;SDS011;43102;52.014;-0.680;2023-04-03T04:24:00;6.90;;;4.10;;
57249;SDS011;43102;52.014;-0.680;2023-04-03T04:25:01;6.90;;;4.10;;
57249;SDS011;43102;52.014;-0.680;2023-04-03T04:26:00;6.90;;;4.10;;
57249;SDS011;43102;52.014;-0.680;2023-04-03T04:27:00;6.90;;;4.10;;
57249;SDS011;43102;52.014;-0.680;2023-04-03T04:28:01;6.90;;;4.10;;
57249;SDS011;43102;52.014;-0.680;2023-04-03T04:29:00;6.90;;;4.10;;
57249;SDS011;43102;52.014;-0.680;2023-04-03T04:30:01;6.90;;;4.10;;
57249;SDS011;43102;52.014;-0.680;2023-04-03T04:31:01;6.90;;;4.10;;
57249;SDS011;43102;52.014;-0.680;2023-04-03T04:32:01;6.90;;;4.10;;
57249;SDS011;43102;52.014;-0.680;2023-04-03T04:33:01;6.90;;;4.10;;
57249;SDS011;43102;52.014;-0.680;2023-04-03T04:34:00;6.90;;;4.10;;
57249;SDS011;43102;52.014;-0.680;2023-04-03T04:35:01;6.90;;;4.10;;
57249;SDS011;43102;52.014;-0.680;2023-04-03T04:36:01;6.50;;;4.10;;
57249;SDS011;43102;52.014;-0.680;2023-04-03T04:37:01;6.50;;;4.10;;
57249;SDS011;43102;52.014;-0.680;2023-04-03T04:38:01;6.50;;;4.10;;
57249;SDS011;43102;52.014;-0.680;2023-04-03T04:39:00;6.50;;;4.10;;
57249;SDS011;43102;52.014;-0.680;2023-04-03T04:40:00;6.50;;;4.10;;
57249;SDS011;43102;52.014;-0.680;2023-04-03T04:41:00;6.50;;;4.10;;
57249;SDS011;43102;52.014;-0.680;2023-04-03T04:42:00;6.50;;;4.10;;
57249;SDS011;43102;52.014;-0.680;2023-04-03T04:43:01;6.50;;;4.10;;
57249;SDS011;43102;52.014;-0.680;2023-04-03T04:44:00;6.50;;;4.10;;
57249;SDS011;43102;52.014;-0.680;2023-04-03T04:45:00;6.50;;;4.10;;
57249;SDS011;43102;52.014;-0.680;2023-04-03T04:46:02;6.50;;;4.10;;
57249;SDS011;43102;52.014;-0.680;2023-04-03T04:47:00;6.50;;;4.10;;
57249;SDS011;43102;52.014;-0.680;2023-04-03T04:48:00;6.50;;;4.10;;
57249;SDS011;43102;52.014;-0.680;2023-04-03T04:49:00;6.50;;;4.10;;
57249;SDS011;43102;52.014;-0.680;2023-04-03T04:50:00;6.50;;;4.10;;
57249;SDS011;43102;52.014;-0.680;2023-04-03T04:51:01;6.50;;;4.10;;
57249;SDS011;43102;52.014;-0.680;2023-04-03T04:52:00;6.50;;;4.10;;
57249;SDS011;43102;52.014;-0.680;2023-04-03T04:53:00;6.50;;;4.10;;
57249;SDS011;43102;52.014;-0.680;2023-04-03T04:54:01;6.50;;;4.10;;
57249;SDS011;43102;52.014;-0.680;2023-04-03T04:55:00;6.50;;;4.10;;
57249;SDS011;43102;52.014;-0.680;2023-04-03T04:56:00;6.50;;;4.10;;
57249;SDS011;43102;52.014;-0.680;2023-04-03T04:57:01;6.50;;;4.10;;
57249;SDS011;43102;52.014;-0.680;2023-04-03T04:58:00;6.50;;;4.10;;
57249;SDS011;43102;52.014;-0.680;2023-04-03T04:59:01;6.50;;;4.10;;
57249;SDS011;43102;52.014;-0.680;2023-04-03T05:00:00;6.50;;;4.10;;
57249;SDS011;43102;52.014;-0.680;2023-04-03T05:01:02;6.50;;;4.10;;
57249;SDS011;43102;52.014;-0.680;2023-04-03T05:02:01;6.50;;;4.10;;
57249;SDS011;43102;52.014;-0.680;2023-04-03T05:03:00;6.50;;;4.10;;
57249;SDS011;43102;52.014;-0.680;2023-04-03T05:04:00;6.50;;;4.10;;
57249;SDS011;43102;52.014;-0.680;2023-04-03T05:05:03;6.50;;;4.10;;
57249;SDS011;43102;52.014;-0.680;2023-04-03T05:06:01;7.70;;;4.60;;
57249;SDS011;43102;52.014;-0.680;2023-04-03T05:07:00;7.70;;;4.60;;
57249;SDS011;43102;52.014;-0.680;2023-04-03T05:08:01;7.70;;;4.60;;
57249;SDS011;43102;52.014;-0.680;2023-04-03T05:09:01;7.70;;;4.60;;
57249;SDS011;43102;52.014;-0.680;2023-04-03T05:10:01;7.70;;;4.60;;
57249;SDS011;43102;52.014;-0.680;2023-04-03T05:11:00;7.70;;;4.60;;
57249;SDS011;43102;52.014;-0.680;2023-04-03T05:12:02;7.70;;;4.60;;
57249;SDS011;43102;52.014;-0.680;2023-04-03T05:13:00;7.70;;;4.60;;
57249;SDS011;43102;52.014;-0.680;2023-04-03T05:14:00;7.70;;;4.60;;
57249;SDS011;43102;52.014;-0.680;2023-04-03T05:15:00;7.70;;;4.60;;
57249;SDS011;43102;52.014;-0.680;2023-04-03T05:16:01;7.70;;;4.60;;
57249;SDS011;43102;52.014;-0.680;2023-04-03T05:17:00;7.70;;;4.60;;
57249;SDS011;43102;52.014;-0.680;2023-04-03T05:18:00;7.70;;;4.60;;
57249;SDS011;43102;52.014;-0.680;2023-04-03T05:19:00;7.70;;;4.60;;
57249;SDS011;43102;52.014;-0.680;2023-04-03T05:20:01;7.70;;;4.60;;
57249;SDS011;43102;52.014;-0.680;2023-04-03T05:21:00;7.70;;;4.60;;
57249;SDS011;43102;52.014;-0.680;2023-04-03T05:22:00;7.70;;;4.60;;
57249;SDS011;43102;52.014;-0.680;2023-04-03T05:23:01;7.70;;;4.60;;
57249;SDS011;43102;52.014;-0.680;2023-04-03T05:24:02;7.70;;;4.60;;
57249;SDS011;43102;52.014;-0.680;2023-04-03T05:25:00;7.70;;;4.60;;
57249;SDS011;43102;52.014;-0.680;2023-04-03T05:26:00;7.70;;;4.60;;
57249;SDS011;43102;52.014;-0.680;2023-04-03T05:27:00;7.70;;;4.60;;
57249;SDS011;43102;52.014;-0.680;2023-04-03T05:28:00;7.70;;;4.60;;
57249;SDS011;43102;52.014;-0.680;2023-04-03T05:29:00;7.70;;;4.60;;
57249;SDS011;43102;52.014;-0.680;2023-04-03T05:30:01;7.70;;;4.60;;
57249;SDS011;43102;52.014;-0.680;2023-04-03T05:31:00;7.70;;;4.60;;
57249;SDS011;43102;52.014;-0.680;2023-04-03T05:32:00;7.70;;;4.60;;
57249;SDS011;43102;52.014;-0.680;2023-04-03T05:33:01;7.70;;;4.60;;
57249;SDS011;43102;52.014;-0.680;2023-04-03T05:34:00;7.70;;;4.60;;
57249;SDS011;43102;52.014;-0.680;2023-04-03T05:35:01;7.70;;;4.60;;
57249;SDS011;43102;52.014;-0.680;2023-04-03T05:36:04;6.80;;;4.20;;
57249;SDS011;43102;52.014;-0.680;2023-04-03T05:37:03;6.80;;;4.20;;
57249;SDS011;43102;52.014;-0.680;2023-04-03T05:38:00;6.80;;;4.20;;
57249;SDS011;43102;52.014;-0.680;2023-04-03T05:39:01;6.80;;;4.20;;
57249;SDS011;43102;52.014;-0.680;2023-04-03T05:40:00;6.80;;;4.20;;
57249;SDS011;43102;52.014;-0.680;2023-04-03T05:41:00;6.80;;;4.20;;
57249;SDS011;43102;52.014;-0.680;2023-04-03T05:42:00;6.80;;;4.20;;
57249;SDS011;43102;52.014;-0.680;2023-04-03T05:43:00;6.80;;;4.20;;
57249;SDS011;43102;52.014;-0.680;2023-04-03T05:44:01;6.80;;;4.20;;
57249;SDS011;43102;52.014;-0.680;2023-04-03T05:45:00;6.80;;;4.20;;
57249;SDS011;43102;52.014;-0.680;2023-04-03T05:46:01;6.80;;;4.20;;
57249;SDS011;43102;52.014;-0.680;2023-04-03T05:47:00;6.80;;;4.20;;
57249;SDS011;43102;52.014;-0.680;2023-04-03T05:48:00;6.80;;;4.20;;
57249;SDS011;43102;52.014;-0.680;2023-04-03T05:49:00;6.80;;;4.20;;
57249;SDS011;43102;52.014;-0.680;2023-04-03T05:50:00;6.80;;;4.20;;
57249;SDS011;43102;52.014;-0.680;2023-04-03T05:51:00;6.80;;;4.20;;
57249;SDS011;43102;52.014;-0.680;2023-04-03T05:52:01;6.80;;;4.20;;
57249;SDS011;43102;52.014;-0.680;2023-04-03T05:53:02;6.80;;;4.20;;
57249;SDS011;43102;52.014;-0.680;2023-04-03T05:54:12;6.80;;;4.20;;
57249;SDS011;43102;52.014;-0.680;2023-04-03T05:55:01;6.80;;;4.20;;
57249;SDS011;43102;52.014;-0.680;2023-04-03T05:56:00;6.80;;;4.20;;
57249;SDS011;43102;52.014;-0.680;2023-04-03T05:57:00;6.80;;;4.20;;
57249;SDS011;43102;52.014;-0.680;2023-04-03T05:58:00;6.80;;;4.20;;
57249;SDS011;43102;52.014;-0.680;2023-04-03T05:59:01;6.80;;;4.20;;
57249;SDS011;43102;52.014;-0.680;2023-04-03T06:00:01;6.80;;;4.20;;